Friendship, ME

9:48 AM EDT on October 25, 2014 (GMT -0400)
Knox County Regional | Change Station
CLOSE
Current Station
Airport
Location: Rockland,
Elevation: 56 ft
Nearby Weather Stations

Elev 56 ft 44.06 °N, 69.10 °W | Updated 13 minutes ago

Mostly Cloudy
Mostly Cloudy
48 °F
Feels Like 48 °F
N
10
Wind Variable Wind from West

Today
High -- | Low -- °F
--% Chance of Precip.
Yesterday
High -- | Low -- °F
Precip. -- in
7:03 AM 5:36 PM
Waxing Crescent, 3% visible
Pressure 29.67 in
Visibility 10.0 miles
Clouds Mostly Cloudy 5000 ft
Dew Point 39 °F
Humidity 71%
Rainfall 0.00 in
Snow Depth Not available.
UV 1 out of 12
Pollen .40 out of 12
Air Quality Not available.
Flu Activity Sporadic
METAR KRKD 251335Z AUTO 27009KT 10SM BKN050 09/04 A2967 RMK AO1

More Conditions Fewer Conditions

Pressure 29.67 in
Visibility 10.0 miles
Clouds Mostly Cloudy 5000 ft
Dew Point 39 °F
Humidity 71%
Rainfall 0.00 in
Snow Depth Not available.
UV 1 out of 12
Pollen .40 out of 12
Air Quality Not available.
Flu Activity Sporadic
METAR KRKD 251335Z AUTO 27009KT 10SM BKN050 09/04 A2967 RMK AO1

More Conditions Fewer Conditions

10-Day Weather Forecast

Almanac

Astronomy

Oct. 25, 2014 Rise Set
Actual Time 7:03 AM EDT 5:36 PM EDT
Civil Twilight 6:34 AM EDT 6:06 PM EDT
Nautical Twilight 6:00 AM EDT 6:39 PM EDT
Astronomical Twilight 5:26 AM EDT 7:13 PM EDT
Moon 8:41 AM EDT 6:53 PM EDT
Length of Visible Light 11h 32m
Length of Day
10h 32m
Tomorrow will be 2m 49s shorter.
Waxing Crescent, 3% of the Moon is Illuminated
Today
Waxing Crescent
Oct 30
First Quarter
Nov 6
Full
Nov 14
Last Quarter
Nov 22
New

Today's Extremes

State Highs State Lows

Community

WunderPhotos

Upload Photos

1,764,830 photos uploaded!

Nearby

Air Quality

  Air Quality AQ Index Pollutant
Saturday Good
OZONE
Saturday Good
PM2.5
Sunday Good
OZONE
Sunday Good
PM2.5
Monday Good
OZONE
Monday Good
PM2.5
Tuesday Good
OZONE
Tuesday Good
PM2.5

Snow Depth

Station Depth Elevation
No new snow has been reported.

Earthquake Activity

City Distance Mag. Time & Date
No recent earthquake activity has been reported nearby.
Minimum magnitude displayed is 2.5.

Coastal Water Temperatures

Place Temperature
Bar Harbor, ME 54.0 °F
Portland, ME 54.0 °F
Wells, ME 51.1 °F

Nearby Weather Stations